Fourmile Hill, Arkansas
Current Conditions -  °F | °C
As of 10:56 PM on Friday 28 Nov 2014 (Local Time) from KSRC Reporting Station
Clear Clear  
Wind Chill: 43°   Ceiling: Unl
Heat Index: 46°   Visibility: 10mi
Dew Point: 37°   Wind: 6mph
Humidity: 71%   Direction: 200°SSW
Pressure: 30.06"   Gusts: NA
Location:  35.2662°N, 91.8491°W
Report Text: KSRC 290456Z AUTO 20005KT 10SM CLR 08/03 A3006 RMK AO2 SLP185 T00780028 401281039 TSNO
Loading
Personal Weather Stations






























Interactive Weather Map New forecast layout! Learn more

10-Day Weather Forecast

Advertisements
Track Severe Weather on mobile